Time;durP1;ratioP1;P1;durP2;ratioP2;P2;SDS_P1;SDS_P2;PMS_P1;PMS_P2;Temp;Humidity;BMP_temperature;BMP_pressure;BME280_temperature;BME280_humidity;BME280_pressure;Samples;Min_cycle;Max_cycle;Signal;HPM_P1;HPM_P2
2022/12/12 00:01:27;;;;;;;;;;;;;;;-0.79;62.44;94518.41;5073131;28;20013;-65
2022/12/12 00:03:52;;;;;;;;;;;;;;;-0.60;61.84;94517.00;5073047;28;20517;-65
2022/12/12 00:06:18;;;;;;;;;;;;;;;-0.71;61.97;94520.56;5055013;28;20116;-66
2022/12/12 00:08:44;;;;;;;;;;;;;;;-0.43;61.93;94518.69;5054767;28;20072;-65
2022/12/12 00:11:09;;;;;;;;;;;;;;;-0.48;61.75;94521.25;5054960;28;20119;-65
2022/12/12 00:13:34;;;;;;;;;;;;;;;-0.93;62.99;94519.81;5072842;28;20071;-65
2022/12/12 00:15:59;;;;;;;;;;;;;;;-1.07;63.36;94525.47;5072723;28;20364;-65
2022/12/12 00:18:25;;;;;;;;;;;;;;;-1.37;64.81;94525.91;5072201;28;20017;-65
2022/12/12 00:20:54;;;;;;;;;;;;;;;-1.32;64.87;94519.97;5054538;28;20017;-66
2022/12/12 00:23:20;;;;;;;;;;;;;;;-0.84;63.18;94520.97;5054828;28;20013;-65
2022/12/12 00:25:51;;;;;;;;;;;;;;;-1.47;65.16;94525.81;5072741;28;20016;-66
2022/12/12 00:28:16;;;;;;;;;;;;;;;-1.47;64.87;94527.63;5070991;28;20494;-65
2022/12/12 00:30:42;;;;;;;;;;;;;;;-0.89;63.67;94533.97;5072350;28;20017;-66
2022/12/12 00:33:07;;;;;;;;;;;;;;;-1.18;64.55;94526.38;5072658;28;20017;-64
2022/12/12 00:35:32;;;;;;;;;;;;;;;-1.43;64.99;94523.50;5072565;28;20005;-65
2022/12/12 00:37:57;;;;;;;;;;;;;;;-1.24;64.26;94531.78;5072361;28;20013;-65
2022/12/12 00:40:22;;;;;;;;;;;;;;;-1.02;63.84;94535.16;5054256;28;20009;-65
2022/12/12 00:42:48;;;;;;;;;;;;;;;-1.14;64.04;94535.28;5072335;28;20071;-66
2022/12/12 00:45:13;;;;;;;;;;;;;;;-0.70;63.32;94532.59;5072417;28;20629;-65
2022/12/12 00:47:38;;;;;;;;;;;;;;;-0.59;62.97;94536.84;5072282;28;20006;-66
2022/12/12 00:50:04;;;;;;;;;;;;;;;-0.86;63.80;94538.72;5053545;28;20124;-65
2022/12/12 00:52:29;;;;;;;;;;;;;;;-0.67;63.19;94536.50;5072028;28;20071;-64
2022/12/12 00:54:54;;;;;;;;;;;;;;;-0.53;62.83;94540.28;5072069;28;20016;-65
2022/12/12 00:57:20;;;;;;;;;;;;;;;-0.66;63.20;94540.72;5072125;28;20016;-63
2022/12/12 00:59:45;;;;;;;;;;;;;;;-0.66;63.05;94538.91;5071781;28;20009;-65
2022/12/12 01:02:11;;;;;;;;;;;;;;;-0.66;62.94;94544.13;5072145;28;20098;-65
2022/12/12 01:04:36;;;;;;;;;;;;;;;-0.54;62.78;94536.91;5071944;28;20016;-64
2022/12/12 01:07:02;;;;;;;;;;;;;;;-0.96;62.57;94541.22;5071654;28;20096;-66
2022/12/12 01:09:27;;;;;;;;;;;;;;;-1.06;64.34;94541.91;5071410;28;20534;-65
2022/12/12 01:11:52;;;;;;;;;;;;;;;-1.00;64.03;94547.97;5071527;28;20062;-65
2022/12/12 01:14:17;;;;;;;;;;;;;;;-1.39;65.13;94546.22;5053698;28;20020;-64
2022/12/12 01:16:43;;;;;;;;;;;;;;;-1.52;65.68;94544.00;5071574;28;20013;-66
2022/12/12 01:19:08;;;;;;;;;;;;;;;-1.54;65.83;94546.03;5070932;28;20062;-64
2022/12/12 01:21:35;;;;;;;;;;;;;;;-1.21;64.60;94546.97;5071472;28;20009;-66
2022/12/12 01:24:00;;;;;;;;;;;;;;;-1.64;65.19;94546.75;5071440;28;20373;-64
2022/12/12 01:26:29;;;;;;;;;;;;;;;-1.51;64.98;94553.41;5071300;28;20031;-66
2022/12/12 01:28:55;;;;;;;;;;;;;;;-1.61;65.86;94538.41;5070714;28;20044;-66
2022/12/12 01:31:20;;;;;;;;;;;;;;;-1.64;66.39;94548.53;5071194;28;20112;-64
2022/12/12 01:33:45;;;;;;;;;;;;;;;-1.43;65.38;94546.97;5071296;28;20055;-64
2022/12/12 01:36:15;;;;;;;;;;;;;;;-1.00;64.33;94547.97;5071129;28;20013;-65
2022/12/12 01:38:41;;;;;;;;;;;;;;;-1.07;63.97;94551.56;5070228;28;20036;-65
2022/12/12 01:41:06;;;;;;;;;;;;;;;-0.87;64.02;94560.59;5071164;28;20533;-65
2022/12/12 01:43:31;;;;;;;;;;;;;;;-0.76;62.77;94551.88;5070926;28;20016;-66
2022/12/12 01:45:57;;;;;;;;;;;;;;;-0.49;61.80;94553.66;5071105;28;20013;-65
2022/12/12 01:48:26;;;;;;;;;;;;;;;-0.84;62.89;94554.91;5052076;28;20013;-65
2022/12/12 01:50:52;;;;;;;;;;;;;;;-0.52;61.57;94554.94;5070647;28;20021;-64
2022/12/12 01:53:18;;;;;;;;;;;;;;;-0.28;61.07;94555.38;5070873;28;20381;-64
2022/12/12 01:55:44;;;;;;;;;;;;;;;-0.16;60.24;94550.75;5052814;28;20381;-65
2022/12/12 01:58:09;;;;;;;;;;;;;;;0.30;59.76;94558.91;5070152;28;20461;-65
2022/12/12 02:00:35;;;;;;;;;;;;;;;0.52;59.05;94548.28;5052646;28;20058;-65
2022/12/12 02:03:00;;;;;;;;;;;;;;;-0.01;59.24;94552.69;5070517;28;20404;-65
2022/12/12 02:05:29;;;;;;;;;;;;;;;-0.45;60.64;94552.13;5070542;28;20009;-65
2022/12/12 02:07:56;;;;;;;;;;;;;;;0.12;59.59;94547.03;5070316;28;20013;-64
2022/12/12 02:10:21;;;;;;;;;;;;;;;0.22;59.30;94556.78;5070004;28;20023;-65
2022/12/12 02:12:46;;;;;;;;;;;;;;;0.35;58.21;94558.13;5070499;28;20481;-64
2022/12/12 02:15:12;;;;;;;;;;;;;;;0.47;57.97;94549.06;5052308;28;20013;-66
2022/12/12 02:17:40;;;;;;;;;;;;;;;0.27;57.97;94553.41;5070212;28;20013;-64
2022/12/12 02:20:32;;;;;;;;;;;;;;;0.03;59.20;94553.00;5069849;28;20010;-64
2022/12/12 02:23:24;;;;;;;;;;;;;;;-0.37;59.94;94556.88;5065400;28;20039;-65
2022/12/12 02:26:08;;;;;;;;;;;;;;;-0.10;59.12;94557.63;5070165;28;20104;-67
2022/12/12 02:28:47;;;;;;;;;;;;;;;0.14;58.69;94571.09;5069562;28;20063;-65
2022/12/12 02:31:13;;;;;;;;;;;;;;;-0.12;58.99;94562.28;5070089;28;20013;-65
2022/12/12 02:33:47;;;;;;;;;;;;;;;-0.40;59.40;94565.22;5070300;28;20032;-66
2022/12/12 02:36:15;;;;;;;;;;;;;;;-0.12;59.63;94564.91;5070109;28;20008;-65
2022/12/12 02:38:59;;;;;;;;;;;;;;;-0.27;59.65;94565.59;5051861;28;20025;-65
2022/12/12 02:41:30;;;;;;;;;;;;;;;-0.50;60.15;94572.97;5069731;28;20009;-65
2022/12/12 02:43:59;;;;;;;;;;;;;;;-0.39;60.08;94564.97;5070024;28;20100;-65
2022/12/12 02:46:35;;;;;;;;;;;;;;;-0.11;59.70;94568.31;5051860;28;20043;-65
2022/12/12 02:49:03;;;;;;;;;;;;;;;0.24;58.77;94573.78;5051710;28;20818;-65
2022/12/12 02:51:30;;;;;;;;;;;;;;;0.47;58.12;94570.00;5051252;28;20025;-65
2022/12/12 02:53:57;;;;;;;;;;;;;;;0.66;57.81;94566.91;5052097;28;20484;-65
2022/12/12 02:56:41;;;;;;;;;;;;;;;0.64;57.75;94569.81;5069565;28;20068;-66
2022/12/12 02:59:07;;;;;;;;;;;;;;;-0.24;58.68;94585.22;5051255;28;20017;-65
2022/12/12 03:01:46;;;;;;;;;;;;;;;0.50;58.47;94572.09;5069768;28;20105;-65
2022/12/12 03:10:08;;;;;;;;;;;;;;;-0.24;59.42;94574.75;5069510;28;20496;-64
2022/12/12 03:12:57;;;;;;;;;;;;;;;0.68;58.24;94573.50;5069535;28;20512;-64
2022/12/12 03:15:24;;;;;;;;;;;;;;;0.98;57.44;94575.44;5068722;28;20156;-65
2022/12/12 03:17:56;;;;;;;;;;;;;;;1.18;57.27;94568.69;5051045;28;20020;-66
2022/12/12 03:20:34;;;;;;;;;;;;;;;1.32;56.44;94572.34;5069608;28;20009;-66
2022/12/12 03:23:03;;;;;;;;;;;;;;;1.43;56.46;94571.31;5052091;28;20017;-65
2022/12/12 03:25:43;;;;;;;;;;;;;;;1.45;55.82;94571.09;5069856;28;20484;-66
2022/12/12 03:28:13;;;;;;;;;;;;;;;1.47;55.78;94576.84;5069329;28;20016;-66
2022/12/12 03:30:41;;;;;;;;;;;;;;;1.42;55.19;94572.38;5069934;28;20167;-67
2022/12/12 03:33:18;;;;;;;;;;;;;;;1.36;54.93;94572.63;5069791;28;20010;-65
2022/12/12 03:35:51;;;;;;;;;;;;;;;1.29;55.25;94571.06;5051583;28;20008;-64
2022/12/12 03:38:19;;;;;;;;;;;;;;;1.02;55.20;94571.25;5068856;28;20783;-64
2022/12/12 03:40:47;;;;;;;;;;;;;;;1.03;55.82;94575.44;5069576;28;20016;-65
2022/12/12 03:43:15;;;;;;;;;;;;;;;0.93;55.59;94567.56;5069412;28;20539;-66
2022/12/12 03:45:51;;;;;;;;;;;;;;;0.93;55.80;94572.00;5069606;28;20009;-66
2022/12/12 03:48:26;;;;;;;;;;;;;;;0.85;55.75;94575.91;5050847;28;20107;-66
2022/12/12 03:50:54;;;;;;;;;;;;;;;0.20;56.41;94580.53;5069096;28;20531;-63
2022/12/12 03:53:25;;;;;;;;;;;;;;;0.30;56.31;94585.06;5069279;28;20480;-64
2022/12/12 03:55:50;;;;;;;;;;;;;;;-0.46;58.14;94585.31;5099788;22;20024;-69
2022/12/12 03:58:22;;;;;;;;;;;;;;;-1.20;60.80;94580.63;5070933;28;20844;-70
2022/12/12 04:00:49;;;;;;;;;;;;;;;-1.67;61.99;94588.94;5071320;28;20017;-69
2022/12/12 04:03:20;;;;;;;;;;;;;;;-1.16;61.29;94580.94;5074221;28;20063;-70
2022/12/12 04:12:57;;;;;;;;;;;;;;;-0.82;59.88;94579.75;5092766;28;20069;-70
2022/12/12 04:14:26;;;;;;;;;;;;;;;-1.06;60.06;94583.66;5092467;28;20020;-70
2022/12/12 04:16:59;;;;;;;;;;;;;;;-0.86;60.09;94585.72;5092738;28;20547;-70
2022/12/12 04:25:25;;;;;;;;;;;;;;;-0.32;58.73;94594.28;5092917;28;20034;-70
2022/12/12 04:27:53;;;;;;;;;;;;;;;-0.15;58.37;94594.19;5074559;28;20459;-70
2022/12/12 04:30:18;;;;;;;;;;;;;;;-0.26;57.94;94595.13;5092206;28;20020;-70
2022/12/12 04:32:47;;;;;;;;;;;;;;;-0.76;57.80;94591.03;5092518;28;20560;-70
2022/12/12 04:35:13;;;;;;;;;;;;;;;-0.80;58.62;94595.16;5074263;28;20454;-70
2022/12/12 04:37:46;;;;;;;;;;;;;;;-0.59;58.63;94591.72;5092311;28;20056;-70
2022/12/12 04:40:15;;;;;;;;;;;;;;;-0.63;58.52;94603.69;5091895;28;20009;-70
2022/12/12 04:42:42;;;;;;;;;;;;;;;-0.69;58.37;94611.72;5092276;28;20017;-70
2022/12/12 04:45:17;;;;;;;;;;;;;;;-0.69;58.68;94599.44;5074264;28;20108;-71
2022/12/12 04:47:44;;;;;;;;;;;;;;;-0.98;58.70;94603.31;5092385;28;20008;-71
2022/12/12 04:50:10;;;;;;;;;;;;;;;-0.65;58.01;94602.38;5073744;28;20107;-71
2022/12/12 04:52:37;;;;;;;;;;;;;;;-0.76;57.99;94606.69;5092242;28;20081;-71
2022/12/12 04:55:23;;;;;;;;;;;;;;;-0.61;57.39;94609.47;5092136;28;20511;-71
2022/12/12 04:57:49;;;;;;;;;;;;;;;-0.62;58.08;94607.06;5074490;28;20013;-70
2022/12/12 05:00:14;;;;;;;;;;;;;;;-0.52;57.51;94609.78;5091686;28;20061;-71
2022/12/12 05:02:56;;;;;;;;;;;;;;;-0.74;57.92;94617.69;5073872;28;20370;-70
2022/12/12 05:05:21;;;;;;;;;;;;;;;-1.32;58.40;94574.75;5092147;28;20044;-71
2022/12/12 05:07:50;;;;;;;;;;;;;;;-0.80;57.83;94608.22;5073756;28;20102;-71
2022/12/12 05:10:17;;;;;;;;;;;;;;;-0.49;56.97;94619.75;5091124;28;20013;-71
2022/12/12 05:12:44;;;;;;;;;;;;;;;-0.22;57.42;94622.34;5073442;28;20020;-70
2022/12/12 05:15:09;;;;;;;;;;;;;;;-0.05;57.26;94622.25;5091233;28;20009;-70
2022/12/12 05:17:41;;;;;;;;;;;;;;;-0.14;56.43;94623.72;5073562;28;20024;-71
2022/12/12 05:20:06;;;;;;;;;;;;;;;-0.68;56.55;94621.13;5091531;28;20062;-71
2022/12/12 05:22:32;;;;;;;;;;;;;;;-1.01;57.71;94624.69;5074792;28;20012;-71
2022/12/12 05:24:57;;;;;;;;;;;;;;;-0.31;57.04;94626.44;5091849;28;20403;-71
2022/12/12 05:27:23;;;;;;;;;;;;;;;-0.13;56.46;94617.44;5091478;28;20008;-70
2022/12/12 05:29:48;;;;;;;;;;;;;;;0.12;56.26;94633.34;5091227;28;20056;-71
2022/12/12 05:32:13;;;;;;;;;;;;;;;0.30;56.23;94632.13;5091421;28;20048;-71
2022/12/12 05:34:38;;;;;;;;;;;;;;;0.35;55.74;94632.16;5091522;28;20016;-71
2022/12/12 05:37:03;;;;;;;;;;;;;;;0.38;55.24;94634.28;5091147;28;20013;-71
2022/12/12 05:39:29;;;;;;;;;;;;;;;0.51;55.10;94633.88;5091115;28;20428;-71
2022/12/12 05:41:54;;;;;;;;;;;;;;;0.60;55.10;94641.22;5091581;28;20009;-71
2022/12/12 05:44:19;;;;;;;;;;;;;;;0.72;54.70;94640.00;5091432;28;20009;-71
2022/12/12 05:46:44;;;;;;;;;;;;;;;0.72;54.24;94644.44;5090881;28;20087;-70
2022/12/12 05:49:09;;;;;;;;;;;;;;;0.92;54.38;94644.53;5076451;28;20060;-71
2022/12/12 05:51:35;;;;;;;;;;;;;;;0.83;53.55;94648.69;5070711;28;20104;-71
2022/12/12 05:54:00;;;;;;;;;;;;;;;0.82;53.52;94648.91;5052916;28;20016;-71
2022/12/12 05:56:25;;;;;;;;;;;;;;;0.81;53.68;94650.75;5052409;28;20092;-69
2022/12/12 05:58:50;;;;;;;;;;;;;;;0.29;54.78;94661.16;5070055;28;20012;-69
2022/12/12 06:01:16;;;;;;;;;;;;;;;-1.00;57.44;94655.78;5070400;28;20031;-69
2022/12/12 06:03:41;;;;;;;;;;;;;;;-0.44;56.64;94661.59;5070498;28;20009;-71
2022/12/12 06:06:06;;;;;;;;;;;;;;;-1.02;57.87;94662.25;5070617;28;20009;-70
2022/12/12 06:08:31;;;;;;;;;;;;;;;-2.17;60.13;94670.53;5069952;28;20009;-70
2022/12/12 06:10:57;;;;;;;;;;;;;;;-2.55;63.19;94665.22;5070117;28;20021;-70
2022/12/12 06:13:22;;;;;;;;;;;;;;;-2.64;63.25;94667.38;5070297;28;20051;-69
2022/12/12 06:15:47;;;;;;;;;;;;;;;-2.14;61.89;94674.50;5070491;28;20009;-70
2022/12/12 06:18:12;;;;;;;;;;;;;;;-2.49;62.82;94664.28;5069977;28;20036;-71
2022/12/12 06:20:38;;;;;;;;;;;;;;;-1.88;60.63;94668.66;5069991;28;20473;-70
2022/12/12 06:23:03;;;;;;;;;;;;;;;-2.06;60.78;94666.28;5070208;28;20017;-70
2022/12/12 06:25:28;;;;;;;;;;;;;;;-1.59;61.24;94661.56;5069076;28;20016;-70
2022/12/12 06:27:53;;;;;;;;;;;;;;;-1.73;61.14;94657.69;5070071;28;20548;-70
2022/12/12 06:30:19;;;;;;;;;;;;;;;-1.26;59.06;94667.72;5069658;28;20489;-71
2022/12/12 06:32:44;;;;;;;;;;;;;;;-1.26;58.74;94669.53;5051926;28;20020;-69
2022/12/12 06:35:10;;;;;;;;;;;;;;;-0.90;58.83;94665.56;5070104;28;20079;-69
2022/12/12 06:37:35;;;;;;;;;;;;;;;-1.25;59.20;94668.50;5069702;28;20013;-69
2022/12/12 06:40:00;;;;;;;;;;;;;;;-1.37;59.28;94673.84;5051728;28;20020;-69
2022/12/12 06:42:28;;;;;;;;;;;;;;;-0.83;58.52;94674.75;5068974;28;21481;-73
2022/12/12 06:44:53;;;;;;;;;;;;;;;-0.34;58.32;94671.38;5051990;28;20024;-71
2022/12/12 06:47:18;;;;;;;;;;;;;;;-0.04;57.26;94670.88;5069138;28;20472;-69
2022/12/12 06:49:43;;;;;;;;;;;;;;;0.01;56.42;94676.13;5051040;28;20020;-69
2022/12/12 06:52:08;;;;;;;;;;;;;;;0.13;55.57;94678.56;5059729;28;20473;-72
2022/12/12 06:54:35;;;;;;;;;;;;;;;0.39;55.84;94685.56;5069565;28;20021;-72
2022/12/12 06:57:00;;;;;;;;;;;;;;;0.37;55.13;94684.25;5069664;28;20107;-71
2022/12/12 06:59:28;;;;;;;;;;;;;;;0.07;55.69;94684.81;5068556;28;20036;-72
2022/12/12 07:01:56;;;;;;;;;;;;;;;0.41;55.64;94685.31;5069539;28;20021;-75
2022/12/12 07:04:21;;;;;;;;;;;;;;;0.51;55.27;94691.44;5069072;28;20381;-70
2022/12/12 07:06:46;;;;;;;;;;;;;;;0.56;54.62;94693.28;5068571;28;20111;-66
2022/12/12 07:09:12;;;;;;;;;;;;;;;0.67;54.91;94683.69;5068343;28;20381;-68
2022/12/12 07:11:37;;;;;;;;;;;;;;;0.81;54.27;94690.03;5051415;28;20104;-68
2022/12/12 07:14:04;;;;;;;;;;;;;;;0.84;53.89;94689.53;5051622;28;20062;-68
2022/12/12 07:16:29;;;;;;;;;;;;;;;0.82;53.80;94686.38;5067606;28;20056;-69
2022/12/12 07:18:55;;;;;;;;;;;;;;;0.76;53.34;94690.78;5067877;28;20083;-70
2022/12/12 07:21:20;;;;;;;;;;;;;;;0.69;53.68;94694.69;5069413;28;20046;-70
2022/12/12 07:23:45;;;;;;;;;;;;;;;0.62;53.95;94686.28;5050844;28;20033;-70
2022/12/12 07:26:15;;;;;;;;;;;;;;;0.51;54.02;94691.44;5068895;28;20021;-70
2022/12/12 07:28:40;;;;;;;;;;;;;;;0.36;54.36;94690.50;5069164;28;20127;-78
2022/12/12 07:31:10;;;;;;;;;;;;;;;0.17;54.47;94680.44;5051388;28;20112;-69
2022/12/12 07:33:36;;;;;;;;;;;;;;;-0.09;55.10;94689.13;5068890;28;20036;-70
2022/12/12 07:36:01;;;;;;;;;;;;;;;-0.09;55.52;94692.53;5068675;28;20473;-70
2022/12/12 07:38:27;;;;;;;;;;;;;;;-0.06;55.60;94692.00;5054176;28;20013;-69
2022/12/12 07:40:52;;;;;;;;;;;;;;;-0.25;56.02;94703.88;5073107;28;20695;-69
2022/12/12 07:43:17;;;;;;;;;;;;;;;-0.23;55.99;94709.63;5054789;28;20024;-68
2022/12/12 07:45:43;;;;;;;;;;;;;;;-0.16;55.54;94707.59;5054266;28;20120;-69
2022/12/12 07:48:09;;;;;;;;;;;;;;;-0.09;55.57;94710.81;5072666;28;20005;-70
2022/12/12 07:50:34;;;;;;;;;;;;;;;-0.09;56.38;94713.44;5070859;28;20024;-70
2022/12/12 07:52:59;;;;;;;;;;;;;;;-0.09;55.47;94718.66;5055101;28;20017;-68
2022/12/12 07:55:24;;;;;;;;;;;;;;;-0.04;55.76;94718.72;5071453;28;20133;-69
2022/12/12 07:57:49;;;;;;;;;;;;;;;-0.03;56.08;94717.66;5054757;28;20487;-67
2022/12/12 08:00:15;;;;;;;;;;;;;;;0.04;55.75;94724.50;5071957;28;20017;-68
2022/12/12 08:02:40;;;;;;;;;;;;;;;0.05;55.53;94728.72;5072672;28;20013;-69
2022/12/12 08:05:06;;;;;;;;;;;;;;;0.09;55.67;94721.94;5053891;28;20023;-68
2022/12/12 08:07:31;;;;;;;;;;;;;;;0.12;55.75;94730.09;5053465;28;20102;-68
2022/12/12 08:09:56;;;;;;;;;;;;;;;0.14;55.35;94725.41;5071707;28;20013;-68
2022/12/12 08:12:22;;;;;;;;;;;;;;;0.16;55.32;94730.41;5070858;28;20420;-68
2022/12/12 08:14:47;;;;;;;;;;;;;;;0.17;55.31;94729.34;5072447;28;20012;-69
2022/12/12 08:17:13;;;;;;;;;;;;;;;0.14;55.09;94730.63;5053695;28;20017;-68
2022/12/12 08:19:38;;;;;;;;;;;;;;;0.21;55.27;94731.22;5072123;28;20058;-68
2022/12/12 08:22:03;;;;;;;;;;;;;;;0.18;55.01;94736.94;5064335;28;20013;-68
2022/12/12 08:24:28;;;;;;;;;;;;;;;0.25;54.99;94744.56;5054238;28;20020;-67
2022/12/12 08:26:54;;;;;;;;;;;;;;;0.24;54.86;94743.00;5063586;28;20009;-68
2022/12/12 08:29:19;;;;;;;;;;;;;;;0.25;54.72;94734.13;5066377;28;20371;-67
2022/12/12 08:31:44;;;;;;;;;;;;;;;0.21;54.59;94738.28;5070578;28;20017;-68
2022/12/12 08:34:10;;;;;;;;;;;;;;;0.28;54.49;94736.25;5054387;28;20068;-68
2022/12/12 08:36:35;;;;;;;;;;;;;;;0.34;55.01;94742.31;5053711;28;20020;-68
2022/12/12 08:39:03;;;;;;;;;;;;;;;0.35;54.75;94746.50;5071607;28;20576;-68
2022/12/12 08:41:28;;;;;;;;;;;;;;;0.31;54.81;94745.41;5072321;28;20023;-68
2022/12/12 08:43:53;;;;;;;;;;;;;;;0.46;54.96;94743.72;5071123;28;20108;-68
2022/12/12 08:46:19;;;;;;;;;;;;;;;0.50;54.74;94746.63;5070572;28;20021;-69
2022/12/12 08:48:47;;;;;;;;;;;;;;;0.62;54.79;94749.09;5069446;28;20537;-69
2022/12/12 08:51:13;;;;;;;;;;;;;;;0.71;54.45;94752.78;5070990;28;20027;-69
2022/12/12 08:53:39;;;;;;;;;;;;;;;0.75;54.56;94751.25;5053289;28;20452;-69
2022/12/12 08:56:04;;;;;;;;;;;;;;;0.81;54.29;94752.06;5052275;28;20062;-69
2022/12/12 08:58:29;;;;;;;;;;;;;;;0.85;54.24;94759.19;5070568;28;20013;-68
2022/12/12 09:00:55;;;;;;;;;;;;;;;0.88;54.28;94757.91;5071513;28;20062;-67
2022/12/12 09:03:21;;;;;;;;;;;;;;;0.84;54.38;94765.47;5053103;28;20017;-68
2022/12/12 09:05:46;;;;;;;;;;;;;;;0.94;54.04;94762.91;5071486;28;20017;-68
2022/12/12 09:08:12;;;;;;;;;;;;;;;1.00;54.21;94761.09;5050931;28;20044;-70
2022/12/12 09:10:37;;;;;;;;;;;;;;;0.94;54.15;94762.91;5052346;28;20020;-69
2022/12/12 09:13:03;;;;;;;;;;;;;;;1.04;54.01;94757.72;5070748;28;20057;-68
2022/12/12 09:15:28;;;;;;;;;;;;;;;1.18;54.32;94762.53;5069852;28;20013;-70
2022/12/12 09:17:53;;;;;;;;;;;;;;;1.23;54.30;94765.19;5068892;28;20017;-69
2022/12/12 09:20:18;;;;;;;;;;;;;;;1.32;54.08;94765.47;5062628;28;20477;-69
2022/12/12 09:22:43;;;;;;;;;;;;;;;1.37;54.15;94770.72;5052883;28;20020;-70
2022/12/12 09:25:09;;;;;;;;;;;;;;;1.45;54.05;94767.63;5052959;28;20056;-70
2022/12/12 09:27:34;;;;;;;;;;;;;;;1.45;53.68;94773.66;5070419;28;20013;-69
2022/12/12 09:30:00;;;;;;;;;;;;;;;1.26;53.52;94775.13;5070431;28;20017;-71
2022/12/12 09:32:25;;;;;;;;;;;;;;;1.41;53.43;94771.81;5068982;28;20017;-71
2022/12/12 09:34:50;;;;;;;;;;;;;;;1.43;53.72;94774.94;5070242;28;20016;-71
2022/12/12 09:37:15;;;;;;;;;;;;;;;1.53;53.92;94772.38;5071089;28;20557;-69
2022/12/12 09:39:41;;;;;;;;;;;;;;;1.55;53.50;94778.97;5051917;28;20044;-71
2022/12/12 09:42:38;;;;;;;;;;;;;;;1.66;54.14;94773.75;5070962;28;20009;-74
2022/12/12 09:45:05;;;;;;;;;;;;;;;1.02;54.16;94780.78;4995511;28;20021;-70
2022/12/12 09:47:36;;;;;;;;;;;;;;;1.14;54.74;94772.72;5065150;28;20056;-69
2022/12/12 09:50:05;;;;;;;;;;;;;;;1.39;53.96;94773.91;5051739;28;20037;-69
2022/12/12 09:52:32;;;;;;;;;;;;;;;0.77;54.19;94781.41;5050536;28;20017;-69
2022/12/12 09:54:59;;;;;;;;;;;;;;;1.01;54.58;94778.41;5049156;28;20087;-69
2022/12/12 09:57:30;;;;;;;;;;;;;;;1.39;53.88;94774.69;5082461;22;20063;-63
2022/12/12 10:00:08;;;;;;;;;;;;;;;1.66;53.92;94779.78;5069960;28;20120;-63
2022/12/12 10:02:33;;;;;;;;;;;;;;;1.86;53.91;94767.78;5071034;28;20012;-64
2022/12/12 10:05:07;;;;;;;;;;;;;;;1.83;53.33;94771.69;5059753;28;20062;-65
2022/12/12 10:08:05;;;;;;;;;;;;;;;1.00;54.05;94777.59;5074715;28;20032;-66
2022/12/12 10:10:35;;;;;;;;;;;;;;;0.63;54.53;94777.63;5044533;28;20044;-64
2022/12/12 10:13:02;;;;;;;;;;;;;;;1.19;54.44;94770.13;5069893;28;20055;-66
2022/12/12 10:15:30;;;;;;;;;;;;;;;1.49;53.02;94763.47;5070238;28;20005;-65
2022/12/12 10:17:57;;;;;;;;;;;;;;;1.58;52.40;94766.38;5069664;28;20062;-63
2022/12/12 10:20:27;;;;;;;;;;;;;;;1.62;52.30;94762.97;5080940;28;20009;-66
2022/12/12 10:23:15;;;;;;;;;;;;;;;0.67;52.97;94767.44;5091189;28;20008;-65
2022/12/12 10:25:43;;;;;;;;;;;;;;;0.81;52.65;94765.94;5072043;28;20103;-65
2022/12/12 10:28:13;;;;;;;;;;;;;;;0.97;51.76;94762.41;5090036;28;20012;-65
2022/12/12 10:30:49;;;;;;;;;;;;;;;0.20;53.52;94761.00;5089972;28;20017;-65
2022/12/12 10:33:27;;;;;;;;;;;;;;;0.67;52.67;94770.06;5089591;28;20020;-65
2022/12/12 10:36:10;;;;;;;;;;;;;;;0.96;53.05;94766.06;5089978;28;20505;-65
2022/12/12 10:38:48;;;;;;;;;;;;;;;0.82;53.39;94764.13;5108243;28;20020;-65
2022/12/12 10:41:18;;;;;;;;;;;;;;;0.81;52.06;94758.09;5074760;28;20070;-63
2022/12/12 10:43:43;;;;;;;;;;;;;;;1.16;51.38;94748.88;5108683;28;20068;-65
2022/12/12 10:46:35;;;;;;;;;;;;;;;1.38;51.54;94746.88;5094971;28;20099;-66
2022/12/12 10:49:00;;;;;;;;;;;;;;;1.56;51.53;94751.69;5033379;28;20049;-65
2022/12/12 10:51:26;;;;;;;;;;;;;;;0.79;51.85;94749.72;5089853;28;20083;-63
2022/12/12 10:53:52;;;;;;;;;;;;;;;1.52;52.05;94747.22;5090578;28;20024;-64
2022/12/12 10:56:21;;;;;;;;;;;;;;;1.74;50.96;94749.66;5096870;28;20012;-63
2022/12/12 10:58:56;;;;;;;;;;;;;;;1.47;50.31;94750.59;5071058;28;20021;-63
2022/12/12 11:01:24;;;;;;;;;;;;;;;1.63;49.22;94748.81;5071781;28;20377;-62
2022/12/12 11:03:50;;;;;;;;;;;;;;;2.09;49.62;94747.09;5071995;28;20444;-63
2022/12/12 11:06:25;;;;;;;;;;;;;;;2.29;49.56;94753.44;5093979;28;20008;-62
2022/12/12 11:08:52;;;;;;;;;;;;;;;2.40;49.52;94739.28;5098099;28;20028;-64
2022/12/12 11:11:20;;;;;;;;;;;;;;;2.08;48.72;94748.16;5088794;28;20375;-62
2022/12/12 11:13:51;;;;;;;;;;;;;;;2.03;48.15;94750.00;5093081;28;20013;-62
2022/12/12 11:16:17;;;;;;;;;;;;;;;1.34;48.12;94750.31;5075582;28;20111;-63
2022/12/12 11:18:56;;;;;;;;;;;;;;;1.87;48.37;94746.53;5092825;28;20029;-63
2022/12/12 11:21:21;;;;;;;;;;;;;;;1.78;48.54;94748.09;5075522;28;20017;-64
2022/12/12 11:23:49;;;;;;;;;;;;;;;1.88;48.16;94739.47;5079195;28;20025;-63
2022/12/12 11:26:16;;;;;;;;;;;;;;;2.01;46.70;94739.75;5109418;28;20504;-63
2022/12/12 11:28:43;;;;;;;;;;;;;;;1.28;48.06;94752.09;5082642;28;20525;-63
2022/12/12 11:31:10;;;;;;;;;;;;;;;1.14;46.96;94743.13;5092578;28;20026;-63
2022/12/12 11:33:43;;;;;;;;;;;;;;;1.73;47.13;94742.81;5073932;28;20454;-64
2022/12/12 11:36:12;;;;;;;;;;;;;;;2.34;46.68;94741.09;5069246;28;20013;-66
2022/12/12 11:38:39;;;;;;;;;;;;;;;0.77;45.61;94749.97;5091542;28;20095;-64
2022/12/12 11:41:06;;;;;;;;;;;;;;;1.38;45.33;94746.09;5075176;28;20096;-64
2022/12/12 11:43:35;;;;;;;;;;;;;;;2.34;44.75;94738.47;5074340;28;20595;-64
2022/12/12 11:46:00;;;;;;;;;;;;;;;2.24;44.08;94743.72;5075428;28;20078;-64
2022/12/12 11:48:32;;;;;;;;;;;;;;;2.94;44.90;94730.84;5074774;28;20012;-64
2022/12/12 11:50:57;;;;;;;;;;;;;;;3.35;42.53;94738.63;5093256;28;20538;-64
2022/12/12 11:53:22;;;;;;;;;;;;;;;2.04;42.59;94728.75;5093496;28;20008;-64
2022/12/12 11:56:03;;;;;;;;;;;;;;;1.66;43.36;94731.81;5074810;28;20012;-64
2022/12/12 11:58:37;;;;;;;;;;;;;;;1.60;44.40;94727.59;5092566;28;20103;-64
2022/12/12 12:01:16;;;;;;;;;;;;;;;2.57;44.83;94729.31;5074951;28;20024;-64
2022/12/12 12:03:44;;;;;;;;;;;;;;;2.25;42.41;94723.50;5093217;28;20040;-64
2022/12/12 12:06:09;;;;;;;;;;;;;;;1.83;42.23;94721.88;5093058;28;20009;-64
2022/12/12 12:08:47;;;;;;;;;;;;;;;1.29;41.50;94722.25;5092696;28;20030;-64
2022/12/12 12:11:18;;;;;;;;;;;;;;;0.65;41.88;94719.78;5074671;28;20111;-64
2022/12/12 12:13:55;;;;;;;;;;;;;;;0.61;42.82;94723.94;5092698;28;20020;-64
2022/12/12 12:16:20;;;;;;;;;;;;;;;0.79;42.27;94728.78;5092943;28;20083;-65
2022/12/12 12:18:55;;;;;;;;;;;;;;;0.76;43.77;94724.03;5092323;28;20107;-65
2022/12/12 12:21:28;;;;;;;;;;;;;;;0.75;43.74;94727.69;5092778;28;20053;-64
2022/12/12 12:24:02;;;;;;;;;;;;;;;0.78;44.43;94721.97;5092540;28;20052;-64
2022/12/12 12:26:46;;;;;;;;;;;;;;;0.87;45.16;94728.31;5092418;28;20003;-64
2022/12/12 12:29:22;;;;;;;;;;;;;;;1.09;44.64;94724.75;5074277;28;20024;-64
2022/12/12 12:31:48;;;;;;;;;;;;;;;1.27;44.08;94724.31;5092542;28;20012;-62
2022/12/12 12:34:34;;;;;;;;;;;;;;;1.30;43.84;94724.59;5092432;28;20092;-63
2022/12/12 12:37:08;;;;;;;;;;;;;;;1.24;45.46;94723.00;5074369;28;20396;-63
2022/12/12 12:39:39;;;;;;;;;;;;;;;0.48;43.49;94663.13;5074022;28;20013;-62
2022/12/12 12:42:13;;;;;;;;;;;;;;;1.44;42.65;94722.31;5092017;28;20111;-63
2022/12/12 12:44:46;;;;;;;;;;;;;;;1.15;44.04;94726.34;5073300;28;20019;-64
2022/12/12 12:47:12;;;;;;;;;;;;;;;1.19;43.33;94724.81;5092180;28;20095;-63
2022/12/12 12:49:40;;;;;;;;;;;;;;;1.46;43.74;94722.81;5073550;28;20116;-63
2022/12/12 12:52:11;;;;;;;;;;;;;;;1.08;43.55;94725.81;5092290;28;20009;-63
2022/12/12 12:54:40;;;;;;;;;;;;;;;1.71;42.46;94718.72;5091959;28;20052;-64
2022/12/12 12:57:11;;;;;;;;;;;;;;;1.77;42.27;94722.91;5073606;28;20020;-63
2022/12/12 12:59:39;;;;;;;;;;;;;;;1.08;42.67;94723.97;5073613;28;20017;-63
2022/12/12 13:02:13;;;;;;;;;;;;;;;1.43;41.50;94725.94;5073976;28;20282;-63
2022/12/12 13:04:53;;;;;;;;;;;;;;;1.10;40.57;94724.50;5091711;28;20013;-64
2022/12/12 13:07:25;;;;;;;;;;;;;;;0.83;40.69;94724.63;5085438;28;20434;-64
2022/12/12 13:09:59;;;;;;;;;;;;;;;1.79;39.74;94715.56;5073393;28;20074;-64
2022/12/12 13:12:27;;;;;;;;;;;;;;;2.09;39.78;94720.09;5073575;28;20017;-64
2022/12/12 13:14:57;;;;;;;;;;;;;;;1.41;40.45;94720.19;5091969;28;20482;-63
2022/12/12 13:17:34;;;;;;;;;;;;;;;1.75;40.07;94719.78;5091881;28;20008;-63